Wheat Ridge, CO (80034)

2:20 PM MDT on June 30, 2015 (GMT -0600)
Crown Hill Park | | Change Station
CLOSE
Current Station
Personal Weather Station
Location: Wheat Ridge, CO
Elevation: 5480 ft
Nearby Weather Stations

Elev 5480 ft 39.77 °N, 105.10 °W | Updated 10 minutes ago

Partly Cloudy
Partly Cloudy
91.5 °F
Feels Like 88 °F
N
0.0
Wind Variable Wind from ESE

Today
High -- | Low -- °F
--% Chance of Precip.
Yesterday
High -- | Low -- °F
Precip. -- in
5:35 AM 8:32 PM
Waxing Gibbous, 98% visible
Pressure 30.13 in
Visibility 40.0 miles
Clouds Scattered Clouds 10000 ft
Mostly Cloudy 15000 ft
Heat Index 88 °F
Dew Point 48 °F
Humidity 22%
Rainfall 0.00 in
Snow Depth Not available.
UV 7 out of 12
Pollen 6.00 out of 12
Air Quality Not available.
Flu Activity Sporadic
METAR KBJC 301945Z 03003KT 40SM SCT100 BKN150 33/03 A3013

More Conditions Fewer Conditions

Pressure 30.13 in
Visibility 40.0 miles
Clouds Scattered Clouds 10000 ft
Mostly Cloudy 15000 ft
Heat Index 88 °F
Dew Point 48 °F
Humidity 22%
Rainfall 0.00 in
Snow Depth Not available.
UV 7 out of 12
Pollen 6.00 out of 12
Air Quality Not available.
Flu Activity Sporadic
METAR KBJC 301945Z 03003KT 40SM SCT100 BKN150 33/03 A3013

More Conditions Fewer Conditions

10-Day Weather Forecast

×

Almanac

Astronomy

Jun. 30, 2015 Rise Set
Actual Time
Civil Twilight
Nautical Twilight
Astronomical Twilight
Moon
Length of Visible Light
Length of Day
Tomorrow will be .
, % of the Moon is Illuminated

Today's Extremes

State Highs State Lows

Community

WunderPhotos

Upload Photos

1,834,064 photos uploaded!

WunderBlogs® & News

Nearby

Air Quality

  Air Quality AQ Index Pollutant
Not available.

Snow Depth

Station Depth Elevation

Earthquake Activity

City Distance Mag. Time & Date
Minimum magnitude displayed is 2.5.

Coastal Water Temperatures

Place Temperature

Stations

Nearby Weather Stations

Station Location Temp. Windchill Dew Point Humidity Wind Precip. Elev Updated Type